< < Back
Terminal Aerodrome Forecast


Current Version              Previous Versions:   1  2  3  4  5  6  7  8  9  

Terminal Aerodrome Forecast

181
FTUS42 KGSP 252320
TAFAVL
TAF
KAVL 252320Z 2600/2624 22003KT P6SM VCSH FEW060 SCT100
     FM260200 VRB02KT P6SM FEW200
     FM260500 VRB02KT 5SM BR SCT010
     FM260700 VRB02KT 3SM BR BKN008
      TEMPO 2609/2613 1SM BR BKN005
     FM261400 34004KT P6SM SCT045
     FM261800 23005KT P6SM BKN045 PROB30 2618/2624 4SM -TSRA
      OVC035CB=

Latest METAR

733
SAUS70 KWBC 260600
MTRAVL
METAR KAVL 260554Z AUTO 00000KT 10SM SCT050 22/19 A3013 RMK AO2 SLP168
T02220189 10272 20222 58004


USA.gov is the U.S. government's official web portal to all federal, state and local government web resources and services.